createdAt,value
2024-03-26T00:00:37.122Z,9.10
2024-03-26T00:01:39.336Z,7.90
2024-03-26T00:02:37.090Z,9.90
2024-03-26T00:03:37.076Z,8.60
2024-03-26T00:04:37.087Z,9.90
2024-03-26T00:05:37.081Z,10.00
2024-03-26T00:06:37.039Z,8.70
2024-03-26T00:07:37.059Z,11.30
2024-03-26T00:08:37.033Z,10.50
2024-03-26T00:09:37.015Z,8.40
2024-03-26T00:10:37.001Z,8.70
2024-03-26T00:11:37.002Z,7.90
2024-03-26T00:12:36.989Z,9.60
2024-03-26T00:13:36.991Z,8.40
2024-03-26T00:14:37.003Z,9.50
2024-03-26T00:15:36.950Z,7.90
2024-03-26T00:16:36.942Z,9.70
2024-03-26T00:17:36.942Z,8.30
2024-03-26T00:18:36.994Z,8.90
2024-03-26T00:19:36.920Z,9.70
2024-03-26T00:20:36.966Z,7.50
2024-03-26T00:21:36.892Z,10.70
2024-03-26T00:22:36.897Z,10.40
2024-03-26T00:23:36.870Z,7.50
2024-03-26T00:24:36.892Z,10.50
2024-03-26T00:25:36.932Z,9.70
2024-03-26T00:26:36.851Z,9.30
2024-03-26T00:27:36.841Z,9.20
2024-03-26T00:28:36.860Z,11.10
2024-03-26T00:29:36.843Z,9.40
2024-03-26T00:30:36.823Z,9.10
2024-03-26T00:31:36.801Z,8.20
2024-03-26T00:32:36.799Z,9.50
2024-03-26T00:33:36.786Z,10.10
2024-03-26T00:34:36.822Z,9.70
2024-03-26T00:35:36.767Z,9.00
2024-03-26T00:36:36.777Z,10.40
2024-03-26T00:37:36.781Z,10.00
2024-03-26T00:38:36.743Z,9.00
2024-03-26T00:39:36.830Z,7.90
2024-03-26T00:40:36.777Z,9.50
2024-03-26T00:41:36.716Z,9.40
2024-03-26T00:42:36.704Z,9.50
2024-03-26T00:43:36.706Z,10.10
2024-03-26T00:44:36.697Z,9.50
2024-03-26T00:45:36.693Z,9.50
2024-03-26T00:46:36.703Z,10.90
2024-03-26T00:47:36.669Z,11.70
2024-03-26T00:48:36.636Z,7.90
2024-03-26T00:49:36.636Z,8.60
2024-03-26T00:50:36.632Z,10.60
2024-03-26T00:51:36.652Z,12.00
2024-03-26T00:52:36.586Z,9.60
2024-03-26T00:53:36.677Z,9.20
2024-03-26T00:54:36.606Z,11.80
2024-03-26T00:55:36.570Z,9.40
2024-03-26T00:56:36.589Z,10.60
2024-03-26T00:57:36.600Z,10.20
2024-03-26T00:58:36.554Z,11.30
2024-03-26T00:59:36.555Z,9.70
2024-03-26T01:00:36.542Z,7.80
2024-03-26T01:01:36.531Z,8.90
2024-03-26T01:02:36.658Z,9.90
2024-03-26T01:03:36.504Z,8.70
2024-03-26T01:04:36.493Z,9.10
2024-03-26T01:05:36.500Z,9.10
2024-03-26T01:06:36.492Z,10.60
2024-03-26T01:07:36.457Z,9.20
2024-03-26T01:08:36.483Z,11.10
2024-03-26T01:09:36.480Z,9.40
2024-03-26T01:10:36.414Z,8.10
2024-03-26T01:11:36.419Z,8.80
2024-03-26T01:12:36.397Z,9.50
2024-03-26T01:13:36.419Z,11.40
2024-03-26T01:14:36.372Z,10.50
2024-03-26T01:15:36.395Z,9.70
2024-03-26T01:16:36.362Z,8.30
2024-03-26T01:17:36.365Z,8.70
2024-03-26T01:18:36.363Z,10.80
2024-03-26T01:30:00.054Z,8.50
2024-03-26T01:31:02.108Z,9.30
2024-03-26T01:32:11.307Z,11.60
2024-03-26T01:33:01.067Z,8.60
2024-03-26T01:34:01.046Z,10.40
2024-03-26T01:35:01.994Z,10.00
2024-03-26T01:36:01.042Z,10.30
2024-03-26T01:37:01.054Z,11.80
2024-03-26T01:38:01.024Z,9.60
2024-03-26T01:39:01.050Z,10.00
2024-03-26T01:40:00.935Z,8.00
2024-03-26T01:41:01.031Z,11.00
2024-03-26T01:42:00.919Z,9.50
2024-03-26T01:43:00.946Z,10.70
2024-03-26T01:44:01.019Z,7.80
2024-03-26T01:45:00.915Z,9.40
2024-03-26T01:46:00.943Z,10.00
2024-03-26T01:47:00.919Z,9.60
2024-03-26T01:48:00.871Z,10.50
2024-03-26T01:49:00.851Z,10.50
2024-03-26T01:50:00.849Z,9.20
2024-03-26T01:51:00.839Z,8.70
2024-03-26T01:52:00.847Z,9.00
2024-03-26T01:53:00.812Z,9.30
2024-03-26T01:54:00.871Z,11.10
2024-03-26T01:55:00.788Z,7.40
2024-03-26T01:56:00.786Z,7.90
2024-03-26T01:57:00.772Z,7.50
2024-03-26T01:58:00.809Z,10.50
2024-03-26T01:59:00.779Z,8.80
2024-03-26T02:00:00.780Z,8.70
2024-03-26T02:01:00.757Z,9.60
2024-03-26T02:02:00.730Z,11.10
2024-03-26T02:03:00.707Z,8.50
2024-03-26T02:04:00.747Z,9.50
2024-03-26T02:05:00.721Z,9.10
2024-03-26T02:06:00.685Z,9.30
2024-03-26T02:07:00.731Z,9.00
2024-03-26T02:08:00.673Z,8.80
2024-03-26T02:09:00.727Z,11.50
2024-03-26T02:10:00.684Z,8.00
2024-03-26T02:11:00.663Z,8.90
2024-03-26T02:12:00.647Z,8.70
2024-03-26T02:13:00.666Z,9.60
2024-03-26T02:14:00.644Z,9.70
2024-03-26T02:15:00.704Z,10.10
2024-03-26T02:16:00.622Z,9.10
2024-03-26T02:17:00.588Z,8.80
2024-03-26T02:18:00.622Z,9.00
2024-03-26T02:19:00.567Z,9.60
2024-03-26T02:20:00.564Z,8.70
2024-03-26T02:21:00.628Z,10.60
2024-03-26T02:22:00.527Z,7.60
2024-03-26T02:23:00.502Z,8.80
2024-03-26T02:24:00.529Z,9.10
2024-03-26T02:25:00.514Z,10.10
2024-03-26T02:26:00.538Z,10.20
2024-03-26T02:27:00.496Z,9.70
2024-03-26T02:28:00.508Z,10.40
2024-03-26T02:29:00.542Z,8.60
2024-03-26T02:30:00.450Z,8.40
2024-03-26T02:31:00.479Z,10.40
2024-03-26T02:32:00.476Z,10.60
2024-03-26T02:33:00.451Z,8.90
2024-03-26T02:34:00.429Z,8.60
2024-03-26T02:35:00.421Z,11.00
2024-03-26T02:36:00.461Z,9.50
2024-03-26T02:37:00.411Z,10.30
2024-03-26T02:38:00.418Z,10.30
2024-03-26T02:39:00.420Z,9.80
2024-03-26T02:40:00.431Z,8.60
2024-03-26T02:41:00.384Z,9.20
2024-03-26T02:42:00.365Z,8.80
2024-03-26T02:43:00.365Z,9.80
2024-03-26T02:44:00.303Z,10.10
2024-03-26T02:45:00.317Z,9.50
2024-03-26T02:46:00.300Z,9.20
2024-03-26T02:47:00.310Z,10.10
2024-03-26T02:48:00.269Z,8.30
2024-03-26T02:49:00.273Z,9.00
2024-03-26T02:50:00.260Z,9.20
2024-03-26T02:51:00.262Z,8.30
2024-03-26T02:52:00.238Z,8.40
2024-03-26T02:53:00.244Z,8.60
2024-03-26T02:54:00.206Z,8.70
2024-03-26T02:55:00.218Z,8.50
2024-03-26T02:56:00.196Z,10.20
2024-03-26T02:57:00.191Z,10.30
2024-03-26T02:58:00.188Z,12.30
2024-03-26T02:59:00.175Z,8.40
2024-03-26T03:00:00.222Z,8.30
2024-03-26T03:01:00.169Z,7.60
2024-03-26T03:02:00.135Z,9.40
2024-03-26T03:03:00.120Z,9.20
2024-03-26T03:04:00.147Z,9.20
2024-03-26T03:05:00.158Z,14.60
2024-03-26T03:06:00.153Z,8.60
2024-03-26T03:07:00.122Z,9.90
2024-03-26T03:08:00.081Z,8.10
2024-03-26T03:09:00.157Z,9.70
2024-03-26T03:10:00.045Z,9.80
2024-03-26T03:11:00.098Z,9.20
2024-03-26T03:12:00.063Z,9.00
2024-03-26T03:13:00.037Z,8.60
2024-03-26T03:14:00.040Z,9.40
2024-03-26T03:15:00.021Z,9.80
2024-03-26T03:16:00.003Z,9.10
2024-03-26T03:17:00.029Z,10.10
2024-03-26T03:18:00.079Z,8.70
2024-03-26T03:18:59.960Z,9.30
2024-03-26T03:19:59.947Z,9.20
2024-03-26T03:20:59.959Z,10.70
2024-03-26T03:22:00.023Z,8.00
2024-03-26T03:22:59.921Z,8.30
2024-03-26T03:23:59.976Z,8.80
2024-03-26T03:24:59.908Z,8.10
2024-03-26T03:25:59.911Z,7.20
2024-03-26T03:26:59.896Z,9.90
2024-03-26T03:27:59.907Z,9.60
2024-03-26T03:28:59.893Z,9.10
2024-03-26T03:29:59.864Z,11.20
2024-03-26T03:30:59.908Z,7.50
2024-03-26T03:31:59.878Z,7.90
2024-03-26T03:32:59.864Z,7.90
2024-03-26T03:33:59.842Z,8.40
2024-03-26T03:34:59.822Z,8.80
2024-03-26T03:35:59.806Z,8.30
2024-03-26T03:36:59.792Z,9.60
2024-03-26T03:37:59.869Z,8.30
2024-03-26T03:38:59.794Z,8.80
2024-03-26T03:39:59.776Z,8.60
2024-03-26T03:40:59.754Z,8.00
2024-03-26T03:41:59.742Z,9.20
2024-03-26T03:42:59.775Z,8.40
2024-03-26T03:43:59.738Z,8.40
2024-03-26T03:44:59.730Z,9.10
2024-03-26T03:45:59.770Z,8.60
2024-03-26T03:46:59.701Z,8.90
2024-03-26T03:47:59.680Z,9.10
2024-03-26T03:48:59.691Z,7.70
2024-03-26T03:49:59.663Z,8.80
2024-03-26T03:50:59.707Z,8.70
2024-03-26T03:51:59.646Z,9.80
2024-03-26T03:52:59.638Z,8.90
2024-03-26T03:53:59.660Z,9.20
2024-03-26T03:54:59.723Z,8.20
2024-03-26T03:55:59.639Z,8.10
2024-03-26T03:56:59.697Z,8.80
2024-03-26T03:57:59.624Z,9.10
2024-03-26T03:58:59.600Z,10.60
2024-03-26T03:59:59.575Z,7.80
2024-03-26T04:00:59.594Z,10.40
2024-03-26T04:01:59.590Z,8.50
2024-03-26T04:02:59.582Z,8.50
2024-03-26T04:03:59.553Z,8.80
2024-03-26T04:04:59.533Z,9.40
2024-03-26T04:05:59.515Z,9.10
2024-03-26T04:06:59.512Z,9.80
2024-03-26T04:07:59.524Z,8.40
2024-03-26T04:08:59.485Z,9.00
2024-03-26T04:09:59.482Z,9.00
2024-03-26T04:10:59.482Z,8.70
2024-03-26T04:11:59.479Z,9.10
2024-03-26T04:12:59.462Z,8.70
2024-03-26T04:13:59.459Z,9.60
2024-03-26T04:14:59.468Z,7.70
2024-03-26T04:15:59.474Z,8.10
2024-03-26T04:16:59.439Z,9.60
2024-03-26T04:17:59.430Z,8.40
2024-03-26T04:18:59.434Z,8.20
2024-03-26T04:19:59.391Z,8.10
2024-03-26T04:20:59.359Z,11.10
2024-03-26T04:21:59.342Z,10.50
2024-03-26T04:22:59.436Z,8.60
2024-03-26T04:23:59.407Z,10.50
2024-03-26T04:24:59.344Z,9.70
2024-03-26T04:25:59.320Z,8.90
2024-03-26T04:26:59.314Z,8.80
2024-03-26T04:27:59.283Z,10.10
2024-03-26T04:28:59.335Z,8.40
2024-03-26T04:29:59.350Z,10.30
2024-03-26T04:30:59.271Z,10.10
2024-03-26T04:31:59.243Z,9.00
2024-03-26T04:32:59.255Z,9.30
2024-03-26T04:33:59.270Z,9.70
2024-03-26T04:34:59.220Z,8.40
2024-03-26T04:35:59.234Z,9.20
2024-03-26T04:36:59.201Z,8.90
2024-03-26T04:37:59.205Z,9.10
2024-03-26T04:38:59.206Z,9.20
2024-03-26T04:39:59.187Z,11.40
2024-03-26T04:40:59.188Z,11.00
2024-03-26T04:41:59.185Z,10.10
2024-03-26T04:42:59.204Z,9.80
2024-03-26T04:43:59.129Z,11.50
2024-03-26T04:44:59.110Z,8.80
2024-03-26T04:45:59.113Z,9.00
2024-03-26T04:46:59.135Z,9.80
2024-03-26T04:47:59.116Z,9.70
2024-03-26T04:48:59.085Z,10.60
2024-03-26T04:49:59.076Z,10.40
2024-03-26T04:50:59.073Z,8.70
2024-03-26T04:51:59.062Z,8.90
2024-03-26T04:52:59.071Z,9.50
2024-03-26T04:53:59.024Z,8.70
2024-03-26T04:54:59.016Z,10.50
2024-03-26T04:55:59.010Z,10.10
2024-03-26T04:56:59.039Z,9.70
2024-03-26T04:57:59.032Z,10.90
2024-03-26T04:58:59.000Z,10.80
2024-03-26T04:59:59.000Z,11.50
2024-03-26T05:00:58.967Z,10.40
2024-03-26T05:01:58.952Z,10.40
2024-03-26T05:02:58.958Z,10.60
2024-03-26T05:03:58.981Z,10.60
2024-03-26T05:04:58.936Z,10.90
2024-03-26T05:05:58.927Z,11.30
2024-03-26T05:06:58.932Z,11.00
2024-03-26T05:07:58.892Z,10.10
2024-03-26T05:08:58.900Z,10.40
2024-03-26T05:09:58.900Z,8.90
2024-03-26T05:10:58.964Z,12.30
2024-03-26T05:11:58.867Z,10.20
2024-03-26T05:12:58.875Z,9.70
2024-03-26T05:13:58.841Z,12.40
2024-03-26T05:14:58.839Z,11.20
2024-03-26T05:15:58.807Z,8.80
2024-03-26T05:16:58.799Z,10.80
2024-03-26T05:17:59.051Z,13.70
2024-03-26T05:18:58.856Z,8.50
2024-03-26T05:19:58.822Z,10.60
2024-03-26T05:20:58.773Z,10.50
2024-03-26T05:21:58.767Z,9.80
2024-03-26T05:22:58.754Z,12.10
2024-03-26T05:23:58.737Z,10.70
2024-03-26T05:24:58.744Z,9.80
2024-03-26T05:25:58.753Z,10.80
2024-03-26T05:26:58.716Z,11.40
2024-03-26T05:27:58.694Z,9.80
2024-03-26T05:28:58.694Z,9.90
2024-03-26T05:29:58.685Z,10.60
2024-03-26T05:30:58.700Z,9.80
2024-03-26T05:31:58.670Z,13.10
2024-03-26T05:32:58.658Z,11.60
2024-03-26T05:33:58.640Z,11.50
2024-03-26T05:34:58.634Z,9.60
2024-03-26T05:35:58.620Z,9.70
2024-03-26T05:36:58.629Z,9.30
2024-03-26T05:37:58.593Z,10.00
2024-03-26T05:38:58.593Z,9.50
2024-03-26T05:39:58.589Z,10.50
2024-03-26T05:40:58.585Z,10.10
2024-03-26T05:41:58.566Z,9.70
2024-03-26T05:42:58.573Z,9.10
2024-03-26T05:43:58.539Z,11.00
2024-03-26T05:44:58.565Z,11.00
2024-03-26T05:45:58.507Z,11.40
2024-03-26T05:46:58.522Z,11.30
2024-03-26T05:47:58.517Z,11.10
2024-03-26T05:48:58.511Z,10.20
2024-03-26T05:49:58.489Z,9.90
2024-03-26T05:50:58.469Z,10.40
2024-03-26T05:51:58.473Z,11.80
2024-03-26T05:52:58.466Z,12.60
2024-03-26T05:53:58.459Z,11.80
2024-03-26T05:54:58.446Z,9.60
2024-03-26T05:55:58.440Z,9.90
2024-03-26T05:56:58.419Z,11.20
2024-03-26T05:57:58.412Z,10.80
2024-03-26T05:58:58.393Z,10.60
2024-03-26T05:59:58.405Z,9.80
2024-03-26T06:00:58.376Z,10.40
2024-03-26T06:01:58.375Z,12.30
2024-03-26T06:02:58.363Z,11.70
2024-03-26T06:03:59.795Z,10.30
2024-03-26T06:04:58.332Z,11.60
2024-03-26T06:05:58.468Z,9.40
2024-03-26T06:06:58.326Z,11.00
2024-03-26T06:07:58.351Z,12.10
2024-03-26T06:08:58.322Z,10.70
2024-03-26T06:09:58.294Z,10.90
2024-03-26T06:10:58.317Z,10.70
2024-03-26T06:11:58.285Z,9.80
2024-03-26T06:12:58.354Z,11.20
2024-03-26T06:13:58.264Z,10.00
2024-03-26T06:14:58.239Z,11.30
2024-03-26T06:15:58.266Z,9.20
2024-03-26T06:16:58.222Z,11.70
2024-03-26T06:17:58.225Z,10.70
2024-03-26T06:18:58.208Z,8.50
2024-03-26T06:19:58.196Z,11.90
2024-03-26T06:20:58.185Z,9.70
2024-03-26T06:21:58.257Z,11.10
2024-03-26T06:22:58.218Z,10.10
2024-03-26T06:23:58.142Z,10.00
2024-03-26T06:24:58.134Z,11.30
2024-03-26T06:25:58.152Z,10.10
2024-03-26T06:26:58.258Z,10.00
2024-03-26T06:27:58.122Z,9.20
2024-03-26T06:28:58.114Z,10.20
2024-03-26T06:29:58.102Z,12.20
2024-03-26T06:30:58.110Z,9.30
2024-03-26T06:31:58.078Z,12.50
2024-03-26T06:32:58.098Z,11.60
2024-03-26T06:33:58.066Z,9.40
2024-03-26T06:34:58.063Z,9.60
2024-03-26T06:35:58.050Z,9.40
2024-03-26T06:36:58.036Z,9.50
2024-03-26T06:37:58.059Z,11.50
2024-03-26T06:38:58.044Z,10.80
2024-03-26T06:39:58.004Z,8.70
2024-03-26T06:40:58.222Z,10.00
2024-03-26T06:41:57.970Z,11.70
2024-03-26T06:42:58.030Z,8.90
2024-03-26T06:43:58.012Z,10.60
2024-03-26T06:44:57.961Z,9.40
2024-03-26T06:45:58.046Z,9.30
2024-03-26T06:46:57.930Z,11.00
2024-03-26T06:47:57.995Z,9.50
2024-03-26T06:48:57.915Z,9.40
2024-03-26T06:49:57.922Z,10.50
2024-03-26T06:50:57.897Z,10.50
2024-03-26T06:51:57.910Z,8.70
2024-03-26T06:52:57.888Z,9.10
2024-03-26T06:53:57.888Z,9.10
2024-03-26T06:54:57.882Z,9.20
2024-03-26T06:55:57.839Z,9.10
2024-03-26T06:56:57.841Z,9.10
2024-03-26T06:57:57.814Z,9.10
2024-03-26T06:58:57.808Z,8.90
2024-03-26T06:59:57.816Z,7.20
2024-03-26T07:00:57.822Z,8.70
2024-03-26T07:01:57.776Z,9.80
2024-03-26T07:02:57.821Z,10.70
2024-03-26T07:03:57.760Z,7.80
2024-03-26T07:04:57.753Z,8.50
2024-03-26T07:05:57.844Z,8.90
2024-03-26T07:06:57.771Z,9.50
2024-03-26T07:07:57.720Z,8.90
2024-03-26T07:08:57.776Z,9.60
2024-03-26T07:09:57.719Z,8.60
2024-03-26T07:10:57.756Z,8.30
2024-03-26T07:11:57.718Z,8.50
2024-03-26T07:12:59.058Z,8.70
2024-03-26T07:13:57.673Z,8.60
2024-03-26T07:14:57.660Z,8.80
2024-03-26T07:15:57.659Z,8.30
2024-03-26T07:16:57.675Z,7.70
2024-03-26T07:17:57.637Z,9.50
2024-03-26T07:18:57.628Z,7.40
2024-03-26T07:19:57.634Z,9.50
2024-03-26T07:20:57.661Z,8.80
2024-03-26T07:21:57.580Z,8.80
2024-03-26T07:22:57.613Z,8.20
2024-03-26T07:23:57.625Z,7.60
2024-03-26T07:24:57.574Z,6.00
2024-03-26T07:25:57.536Z,8.30
2024-03-26T07:26:57.585Z,7.40
2024-03-26T07:27:57.532Z,7.60
2024-03-26T07:28:57.537Z,7.40
2024-03-26T07:29:57.534Z,8.50
2024-03-26T07:30:57.503Z,8.60
2024-03-26T07:31:57.487Z,6.30
2024-03-26T07:32:57.494Z,8.60
2024-03-26T07:33:57.490Z,8.30
2024-03-26T07:34:57.463Z,7.50
2024-03-26T07:35:57.488Z,6.50
2024-03-26T07:36:57.446Z,7.60
2024-03-26T07:37:57.439Z,7.70
2024-03-26T07:38:57.478Z,7.50
2024-03-26T07:39:57.439Z,7.40
2024-03-26T07:40:57.408Z,7.30
2024-03-26T07:41:57.432Z,7.90
2024-03-26T07:42:59.703Z,7.50
2024-03-26T07:43:57.430Z,7.30
2024-03-26T07:44:57.421Z,10.10
2024-03-26T07:45:57.347Z,7.20
2024-03-26T07:46:57.355Z,6.00
2024-03-26T07:47:57.382Z,6.70
2024-03-26T07:48:57.426Z,7.30
2024-03-26T07:49:57.383Z,9.10
2024-03-26T07:50:57.358Z,7.50
2024-03-26T07:51:57.590Z,7.70
2024-03-26T07:52:57.349Z,7.80
2024-03-26T07:53:57.319Z,6.20
2024-03-26T07:54:57.379Z,8.20
2024-03-26T07:55:57.279Z,6.70
2024-03-26T07:56:57.283Z,7.30
2024-03-26T07:57:57.265Z,6.80
2024-03-26T07:58:57.256Z,6.90
2024-03-26T07:59:57.245Z,6.80
2024-03-26T08:00:57.248Z,7.20
2024-03-26T08:01:57.210Z,6.80
2024-03-26T08:02:57.223Z,7.60
2024-03-26T08:03:57.339Z,7.00
2024-03-26T08:04:57.178Z,6.90
2024-03-26T08:05:57.236Z,9.60
2024-03-26T08:06:57.169Z,6.60
2024-03-26T08:07:57.162Z,7.10
2024-03-26T08:08:57.172Z,7.10
2024-03-26T08:09:57.147Z,7.60
2024-03-26T08:10:57.216Z,7.30
2024-03-26T08:11:57.122Z,7.40
2024-03-26T08:12:57.112Z,5.60
2024-03-26T08:13:57.120Z,7.60
2024-03-26T08:14:57.183Z,8.30
2024-03-26T08:15:57.097Z,8.70
2024-03-26T08:16:57.103Z,7.20
2024-03-26T08:17:58.204Z,6.90
2024-03-26T08:18:57.079Z,11.80
2024-03-26T08:19:57.038Z,7.30
2024-03-26T08:20:57.061Z,7.00
2024-03-26T08:21:57.055Z,7.90
2024-03-26T08:22:57.092Z,9.90
2024-03-26T08:23:57.036Z,8.10
2024-03-26T08:24:58.725Z,7.50
2024-03-26T08:25:57.004Z,7.00
2024-03-26T08:26:57.044Z,10.50
2024-03-26T08:27:56.992Z,5.90
2024-03-26T08:28:56.985Z,8.00
2024-03-26T08:29:57.065Z,8.40
2024-03-26T08:30:56.942Z,8.40
2024-03-26T08:31:56.968Z,8.20
2024-03-26T08:32:56.952Z,7.80
2024-03-26T08:33:56.988Z,7.10
2024-03-26T08:34:56.938Z,7.60
2024-03-26T08:35:56.928Z,7.50
2024-03-26T08:36:56.911Z,6.90
2024-03-26T08:37:56.885Z,7.40
2024-03-26T08:38:56.974Z,7.70
2024-03-26T08:39:56.905Z,8.40
2024-03-26T08:40:56.862Z,8.70
2024-03-26T08:41:56.872Z,7.50
2024-03-26T08:42:56.834Z,8.00
2024-03-26T08:43:56.820Z,7.70
2024-03-26T08:44:56.860Z,10.50
2024-03-26T08:45:56.835Z,6.80
2024-03-26T08:46:56.788Z,7.90
2024-03-26T08:47:56.814Z,6.80
2024-03-26T08:48:56.773Z,6.40
2024-03-26T08:49:56.783Z,7.10
2024-03-26T08:50:56.831Z,8.10
2024-03-26T08:51:56.814Z,8.00
2024-03-26T08:52:56.755Z,9.20
2024-03-26T08:53:56.816Z,8.90
2024-03-26T08:54:56.739Z,7.40
2024-03-26T08:56:00.319Z,7.20
2024-03-26T08:56:56.744Z,8.10
2024-03-26T08:57:56.723Z,7.60
2024-03-26T08:58:56.700Z,6.60
2024-03-26T08:59:56.745Z,7.10
2024-03-26T09:00:56.682Z,6.90
2024-03-26T09:01:56.698Z,7.90
2024-03-26T09:02:56.694Z,6.90
2024-03-26T09:03:56.655Z,8.60
2024-03-26T09:04:56.633Z,8.10
2024-03-26T09:05:56.658Z,7.60
2024-03-26T09:06:56.631Z,8.00
2024-03-26T09:07:56.637Z,7.90
2024-03-26T09:08:56.622Z,8.20
2024-03-26T09:09:56.589Z,6.60
2024-03-26T09:10:56.578Z,8.50
2024-03-26T09:11:56.607Z,6.20
2024-03-26T09:12:56.573Z,8.60
2024-03-26T09:13:56.576Z,8.00
2024-03-26T09:14:56.638Z,7.30
2024-03-26T09:15:56.539Z,8.90
2024-03-26T09:16:56.571Z,8.00
2024-03-26T09:17:56.516Z,7.50
2024-03-26T09:19:01.061Z,7.20
2024-03-26T09:19:56.525Z,8.80
2024-03-26T09:20:56.505Z,8.50
2024-03-26T09:21:56.501Z,7.60
2024-03-26T09:22:56.506Z,7.60
2024-03-26T09:23:56.510Z,7.20
2024-03-26T09:24:56.455Z,7.40
2024-03-26T09:25:56.472Z,7.10
2024-03-26T09:26:56.430Z,7.90
2024-03-26T09:27:56.430Z,7.90
2024-03-26T09:28:56.418Z,6.50
2024-03-26T09:29:56.503Z,7.00
2024-03-26T09:30:56.386Z,5.80
2024-03-26T09:31:56.383Z,8.50
2024-03-26T09:32:56.377Z,7.20
2024-03-26T09:33:56.364Z,6.70
2024-03-26T09:34:56.351Z,7.50
2024-03-26T09:35:56.372Z,7.00
2024-03-26T09:36:56.349Z,6.70
2024-03-26T09:37:56.342Z,9.10
2024-03-26T09:39:06.312Z,8.90
2024-03-26T09:39:56.304Z,8.10
2024-03-26T09:40:56.331Z,7.90
2024-03-26T09:41:56.303Z,6.50
2024-03-26T09:42:56.263Z,8.20
2024-03-26T09:43:56.260Z,7.50
2024-03-26T09:45:05.217Z,8.10
2024-03-26T09:45:56.271Z,7.70
2024-03-26T09:46:56.277Z,7.50
2024-03-26T09:47:56.258Z,7.40
2024-03-26T09:48:56.200Z,6.50
2024-03-26T09:49:56.206Z,6.90
2024-03-26T09:50:56.217Z,7.70
2024-03-26T09:51:56.189Z,5.80
2024-03-26T09:52:56.245Z,7.70
2024-03-26T09:53:56.193Z,6.90
2024-03-26T09:54:56.143Z,7.40
2024-03-26T09:55:56.157Z,7.30
2024-03-26T09:56:56.154Z,7.50
2024-03-26T09:57:56.158Z,7.00
2024-03-26T09:58:56.110Z,7.30
2024-03-26T09:59:56.227Z,7.00
2024-03-26T10:00:56.085Z,6.90
2024-03-26T10:01:56.124Z,7.30
2024-03-26T10:02:56.153Z,6.40
2024-03-26T10:03:56.107Z,7.00
2024-03-26T10:04:56.060Z,7.30
2024-03-26T10:05:56.066Z,6.80
2024-03-26T10:06:56.020Z,6.80
2024-03-26T10:07:56.054Z,8.30
2024-03-26T10:08:56.055Z,6.50
2024-03-26T10:09:56.010Z,6.30
2024-03-26T10:10:56.007Z,7.60
2024-03-26T10:11:55.993Z,8.20
2024-03-26T10:12:55.969Z,7.00
2024-03-26T10:13:55.969Z,7.10
2024-03-26T10:14:55.985Z,6.20
2024-03-26T10:15:55.969Z,8.20
2024-03-26T10:16:55.943Z,7.20
2024-03-26T10:17:55.925Z,7.80
2024-03-26T10:18:55.914Z,6.20
2024-03-26T10:19:55.970Z,7.20
2024-03-26T10:20:55.901Z,7.10
2024-03-26T10:21:55.894Z,6.20
2024-03-26T10:22:55.878Z,5.80
2024-03-26T10:23:55.893Z,7.10
2024-03-26T10:24:55.870Z,6.70
2024-03-26T10:25:55.887Z,6.80
2024-03-26T10:26:55.853Z,8.10
2024-03-26T10:27:55.836Z,7.20
2024-03-26T10:28:55.819Z,6.50
2024-03-26T10:29:55.835Z,5.90
2024-03-26T10:30:55.808Z,6.30
2024-03-26T10:31:55.841Z,7.10
2024-03-26T10:32:55.773Z,5.80
2024-03-26T10:33:55.785Z,7.50
2024-03-26T10:34:55.764Z,5.20
2024-03-26T10:35:55.775Z,5.90
2024-03-26T10:36:55.817Z,6.50
2024-03-26T10:37:59.006Z,5.50
2024-03-26T10:39:02.649Z,5.90
2024-03-26T10:39:55.721Z,6.20
2024-03-26T10:40:58.440Z,5.90
2024-03-26T10:41:55.713Z,6.20
2024-03-26T10:42:55.711Z,5.60
2024-03-26T10:43:55.675Z,6.70
2024-03-26T10:44:55.696Z,7.60
2024-03-26T10:46:03.392Z,5.10
2024-03-26T10:46:55.668Z,6.00
2024-03-26T10:47:55.680Z,6.10
2024-03-26T10:49:01.293Z,5.90
2024-03-26T10:49:55.669Z,5.90
2024-03-26T10:50:55.607Z,6.20
2024-03-26T10:51:55.669Z,5.10
2024-03-26T10:52:55.605Z,6.10
2024-03-26T10:53:55.614Z,6.30
2024-03-26T10:54:55.635Z,6.70
2024-03-26T10:55:55.576Z,6.80
2024-03-26T10:56:55.591Z,6.10
2024-03-26T10:57:55.611Z,6.10
2024-03-26T10:58:55.535Z,5.50
2024-03-26T10:59:55.606Z,7.50
2024-03-26T11:00:55.529Z,5.90
2024-03-26T11:01:55.509Z,7.30
2024-03-26T11:02:55.507Z,6.40
2024-03-26T11:03:55.530Z,6.90
2024-03-26T11:04:55.545Z,7.50
2024-03-26T11:05:55.506Z,7.60
2024-03-26T11:06:55.455Z,7.70
2024-03-26T11:07:55.448Z,7.50
2024-03-26T11:08:55.435Z,6.40
2024-03-26T11:09:55.434Z,6.80
2024-03-26T11:10:56.085Z,7.60
2024-03-26T11:11:55.488Z,8.50
2024-03-26T11:12:55.398Z,6.80
2024-03-26T11:13:55.394Z,8.50
2024-03-26T11:14:55.391Z,9.80
2024-03-26T11:15:55.438Z,7.20
2024-03-26T11:16:55.384Z,7.70
2024-03-26T11:17:55.383Z,9.40
2024-03-26T11:18:55.340Z,7.00
2024-03-26T11:19:55.348Z,7.90
2024-03-26T11:20:55.352Z,7.60
2024-03-26T11:21:55.398Z,6.00
2024-03-26T11:22:55.321Z,6.60
2024-03-26T11:23:55.300Z,5.90
2024-03-26T11:24:55.288Z,7.50
2024-03-26T11:25:55.318Z,6.30
2024-03-26T11:26:55.286Z,7.20
2024-03-26T11:27:55.265Z,6.10
2024-03-26T11:28:55.251Z,7.00
2024-03-26T11:29:55.263Z,6.10
2024-03-26T11:30:55.228Z,6.50
2024-03-26T11:31:55.256Z,11.60
2024-03-26T11:32:55.220Z,6.10
2024-03-26T11:33:55.238Z,6.00
2024-03-26T11:34:55.273Z,6.00
2024-03-26T11:35:55.195Z,6.10
2024-03-26T11:36:55.190Z,6.70
2024-03-26T11:37:55.193Z,6.60
2024-03-26T11:38:55.186Z,6.10
2024-03-26T11:39:55.165Z,7.30
2024-03-26T11:40:55.138Z,6.40
2024-03-26T11:41:55.133Z,8.50
2024-03-26T11:42:55.147Z,7.30
2024-03-26T11:43:55.122Z,6.20
2024-03-26T11:44:55.101Z,6.20
2024-03-26T11:45:55.090Z,5.70
2024-03-26T11:46:55.115Z,6.90
2024-03-26T11:47:55.072Z,5.70
2024-03-26T11:48:55.087Z,6.80
2024-03-26T11:49:55.058Z,6.20
2024-03-26T11:50:55.047Z,6.90
2024-03-26T11:51:55.043Z,5.70
2024-03-26T11:52:55.031Z,6.40
2024-03-26T11:53:55.025Z,5.80
2024-03-26T11:54:55.039Z,5.80
2024-03-26T11:55:55.006Z,4.90
2024-03-26T11:56:54.992Z,7.80
2024-03-26T11:57:54.982Z,6.10
2024-03-26T11:58:54.976Z,4.40
2024-03-26T11:59:54.985Z,5.80
2024-03-26T12:00:54.948Z,4.70
2024-03-26T12:01:54.949Z,4.60
2024-03-26T12:02:54.974Z,5.20
2024-03-26T12:03:54.926Z,4.20
2024-03-26T12:04:54.951Z,6.00
2024-03-26T12:05:54.947Z,5.30
2024-03-26T12:06:54.927Z,4.80
2024-03-26T12:07:54.898Z,4.80
2024-03-26T12:08:54.874Z,5.10
2024-03-26T12:09:54.882Z,5.50
2024-03-26T12:10:54.996Z,5.00
2024-03-26T12:11:54.860Z,6.50
2024-03-26T12:12:54.866Z,4.50
2024-03-26T12:13:54.843Z,5.10
2024-03-26T12:14:54.827Z,5.10
2024-03-26T12:15:54.891Z,5.70
2024-03-26T12:16:54.802Z,9.90
2024-03-26T12:17:54.799Z,5.40
2024-03-26T12:18:54.783Z,5.30
2024-03-26T12:19:54.775Z,4.60
2024-03-26T12:20:54.766Z,4.90
2024-03-26T12:21:54.791Z,7.20
2024-03-26T12:22:54.744Z,4.50
2024-03-26T12:23:54.756Z,5.40
2024-03-26T12:24:54.720Z,5.90
2024-03-26T12:25:54.746Z,5.30
2024-03-26T12:26:54.730Z,6.60
2024-03-26T12:27:54.718Z,6.00
2024-03-26T12:28:54.693Z,4.90
2024-03-26T12:29:54.673Z,4.60
2024-03-26T12:30:54.690Z,5.60
2024-03-26T12:31:54.687Z,4.80
2024-03-26T12:32:54.642Z,4.00
2024-03-26T12:33:54.666Z,4.50
2024-03-26T12:34:54.632Z,5.60
2024-03-26T12:35:54.624Z,4.30
2024-03-26T12:36:54.643Z,4.40
2024-03-26T12:37:54.626Z,5.00
2024-03-26T12:38:55.408Z,5.40
2024-03-26T12:39:54.581Z,5.90
2024-03-26T12:40:54.574Z,4.80
2024-03-26T12:41:54.579Z,6.40
2024-03-26T12:42:54.592Z,5.80
2024-03-26T12:43:54.568Z,6.40
2024-03-26T12:44:54.537Z,5.50
2024-03-26T12:45:54.526Z,6.10
2024-03-26T12:46:54.521Z,10.50
2024-03-26T12:47:54.552Z,5.70
2024-03-26T12:48:54.497Z,6.20
2024-03-26T12:49:54.499Z,4.10
2024-03-26T12:50:54.503Z,6.40
2024-03-26T12:51:54.482Z,5.90
2024-03-26T12:52:54.477Z,7.00
2024-03-26T12:53:54.482Z,4.70
2024-03-26T12:54:54.444Z,4.70
2024-03-26T12:55:54.435Z,5.40
2024-03-26T12:56:54.446Z,4.60
2024-03-26T12:57:54.426Z,4.80
2024-03-26T12:58:54.532Z,5.30
2024-03-26T12:59:54.396Z,4.70
2024-03-26T13:00:54.373Z,5.00
2024-03-26T13:01:54.572Z,5.30
2024-03-26T13:02:54.451Z,4.60
2024-03-26T13:03:54.371Z,6.90
2024-03-26T13:04:54.358Z,4.10
2024-03-26T13:05:54.330Z,7.00
2024-03-26T13:06:54.337Z,6.40
2024-03-26T13:07:56.824Z,5.10
2024-03-26T13:08:54.306Z,7.00
2024-03-26T13:09:54.342Z,4.80
2024-03-26T13:10:54.320Z,5.20
2024-03-26T13:11:54.274Z,6.10
2024-03-26T13:12:54.323Z,5.00
2024-03-26T13:13:54.574Z,5.60
2024-03-26T13:14:54.263Z,5.90
2024-03-26T13:15:54.267Z,4.50
2024-03-26T13:16:54.235Z,4.80
2024-03-26T13:17:54.239Z,6.60
2024-03-26T13:18:54.210Z,5.40
2024-03-26T13:19:56.103Z,5.50
2024-03-26T13:20:54.207Z,6.40
2024-03-26T13:21:54.177Z,5.40
2024-03-26T13:22:54.179Z,4.70
2024-03-26T13:23:54.179Z,4.90